Time;durP1;ratioP1;P1;durP2;ratioP2;P2;SDS_P1;SDS_P2;PMS_P1;PMS_P2;Temp;Humidity;BMP_temperature;BMP_pressure;BME280_temperature;BME280_humidity;BME280_pressure;Samples;Min_cycle;Max_cycle;Signal;HPM_P1;HPM_P2
2024/01/15 00:02:06;;;;;;;4.70;3.10;;;;;;;1.01;100.00;100404.34;5032378;28;20104;-78
2024/01/15 00:04:35;;;;;;;5.97;3.30;;;;;;;0.91;100.00;100391.06;5013788;28;20044;-78
2024/01/15 00:07:01;;;;;;;6.22;3.47;;;;;;;0.76;100.00;100377.09;5032288;28;20030;-79
2024/01/15 00:09:27;;;;;;;6.70;4.07;;;;;;;0.81;100.00;100389.69;5014161;28;20038;-78
2024/01/15 00:11:52;;;;;;;6.72;3.83;;;;;;;0.62;100.00;100376.69;5032521;28;20029;-78
2024/01/15 00:14:20;;;;;;;7.95;4.40;;;;;;;0.54;100.00;100376.91;5033734;28;20033;-79
2024/01/15 00:16:45;;;;;;;6.10;4.38;;;;;;;0.42;100.00;100354.41;5035705;28;20048;-79
2024/01/15 00:19:11;;;;;;;6.63;4.38;;;;;;;0.39;100.00;100359.56;5036148;28;20457;-78
2024/01/15 00:21:36;;;;;;;7.57;4.18;;;;;;;0.46;100.00;100368.66;5035917;28;20025;-79
2024/01/15 00:24:01;;;;;;;6.68;4.40;;;;;;;0.46;100.00;100372.91;5036049;28;20029;-78
2024/01/15 00:26:27;;;;;;;7.85;4.13;;;;;;;0.44;100.00;100372.97;5035925;28;20032;-78
2024/01/15 00:28:52;;;;;;;7.80;4.03;;;;;;;0.27;100.00;100349.75;5034616;28;20033;-79
2024/01/15 00:31:17;;;;;;;7.97;4.00;;;;;;;0.25;100.00;100356.59;5035893;28;20503;-78
2024/01/15 00:33:43;;;;;;;6.70;4.28;;;;;;;0.25;100.00;100357.41;5017704;28;20392;-78
2024/01/15 00:36:08;;;;;;;6.90;3.97;;;;;;;0.35;100.00;100367.31;5035635;28;20103;-79
2024/01/15 00:38:34;;;;;;;7.28;4.15;;;;;;;0.30;100.00;100361.56;5035785;28;20104;-79
2024/01/15 00:40:59;;;;;;;8.23;4.18;;;;;;;0.22;100.00;100352.44;5035777;28;20022;-79
2024/01/15 00:43:24;;;;;;;8.02;4.10;;;;;;;0.16;100.00;100350.06;5035825;28;20029;-78
2024/01/15 00:45:50;;;;;;;7.75;3.83;;;;;;;0.11;100.00;100351.91;5035664;28;20111;-78
2024/01/15 00:48:15;;;;;;;8.07;3.75;;;;;;;0.04;100.00;100355.47;5035387;28;20026;-79
2024/01/15 00:50:40;;;;;;;6.00;3.72;;;;;;;-0.05;100.00;100343.03;5035299;28;20026;-78
2024/01/15 00:53:06;;;;;;;6.50;3.78;;;;;;;-0.04;100.00;100344.69;5035390;28;20041;-79
2024/01/15 00:55:31;;;;;;;8.93;4.18;;;;;;;-0.27;100.00;100309.81;5034313;28;20116;-79
2024/01/15 00:57:56;;;;;;;6.95;3.80;;;;;;;-0.21;100.00;100331.63;5035539;28;20025;-79
2024/01/15 01:00:22;;;;;;;7.22;3.85;;;;;;;-0.19;100.00;100343.41;5035346;28;20026;-78
2024/01/15 01:02:47;;;;;;;10.32;4.25;;;;;;;-0.23;100.00;100340.97;5035195;28;20029;-78
2024/01/15 01:05:13;;;;;;;7.53;3.95;;;;;;;-0.35;100.00;100316.78;5035221;28;20029;-79
2024/01/15 01:07:38;;;;;;;8.25;4.15;;;;;;;-0.34;100.00;100323.50;5035229;28;20040;-78
2024/01/15 01:10:04;;;;;;;9.25;4.40;;;;;;;-0.30;100.00;100333.53;5034022;28;20072;-79
2024/01/15 01:12:30;;;;;;;9.05;4.38;;;;;;;-0.33;100.00;100340.41;5035123;28;20376;-79
2024/01/15 01:14:55;;;;;;;10.05;3.85;;;;;;;-0.52;100.00;100303.69;5035151;28;20061;-79
2024/01/15 01:17:21;;;;;;;10.88;4.22;;;;;;;-0.46;100.00;100317.06;5034854;28;20486;-78
2024/01/15 01:19:46;;;;;;;11.23;4.25;;;;;;;-0.37;100.00;100326.97;5034946;28;20038;-78
2024/01/15 01:22:12;;;;;;;11.50;4.10;;;;;;;-0.42;100.00;100336.38;5017102;28;20018;-78
2024/01/15 01:24:37;;;;;;;8.85;4.10;;;;;;;-0.45;100.00;100328.88;5034864;28;20017;-79
2024/01/15 01:27:02;;;;;;;11.70;4.15;;;;;;;-0.49;100.00;100314.63;5033891;28;20036;-78
2024/01/15 01:29:28;;;;;;;9.13;4.10;;;;;;;-0.47;100.00;100322.19;5034819;28;20045;-79
2024/01/15 01:31:53;;;;;;;11.20;4.05;;;;;;;-0.49;100.00;100324.75;5034691;28;20532;-79
2024/01/15 01:34:18;;;;;;;11.82;4.80;;;;;;;-0.50;100.00;100330.66;5034778;28;20036;-78
2024/01/15 01:36:44;;;;;;;8.32;3.60;;;;;;;-0.51;100.00;100339.16;5034740;28;20107;-78
2024/01/15 01:39:09;;;;;;;11.70;4.00;;;;;;;-0.56;100.00;100333.38;5034864;28;20029;-78
2024/01/15 01:41:35;;;;;;;8.90;3.55;;;;;;;-0.59;100.00;100334.31;5034692;28;20033;-78
2024/01/15 01:44:01;;;;;;;10.52;3.15;;;;;;;-0.61;100.00;100335.19;5034483;28;20029;-77
2024/01/15 01:46:27;;;;;;;11.05;3.20;;;;;;;-0.74;100.00;100316.09;5034355;28;20092;-79
2024/01/15 01:48:55;;;;;;;9.50;3.28;;;;;;;-0.63;100.00;100342.84;5034311;28;20473;-78
2024/01/15 01:51:22;;;;;;;8.05;3.10;;;;;;;-0.64;100.00;100341.16;5033943;28;20358;-79
2024/01/15 01:53:49;;;;;;;8.52;2.80;;;;;;;-0.67;100.00;100346.34;5034390;28;20041;-78
2024/01/15 01:56:14;;;;;;;12.75;3.30;;;;;;;-0.76;100.00;100333.88;5034480;28;20025;-78
2024/01/15 01:58:40;;;;;;;10.40;2.67;;;;;;;-0.70;100.00;100341.31;5034238;28;20091;-78
2024/01/15 02:01:06;;;;;;;6.43;2.50;;;;;;;-0.80;100.00;100319.59;5034214;28;20084;-78
2024/01/15 02:03:33;;;;;;;9.93;2.30;;;;;;;-0.64;100.00;100340.34;5034103;28;20084;-78
2024/01/15 02:06:00;;;;;;;5.93;2.63;;;;;;;-0.72;100.00;100332.09;5033936;28;20513;-79
2024/01/15 02:08:26;;;;;;;9.88;2.60;;;;;;;-0.63;100.00;100339.47;5015808;28;20045;-78
2024/01/15 02:10:51;;;;;;;7.15;2.97;;;;;;;-0.63;100.00;100330.16;5034159;28;20025;-78
2024/01/15 02:13:18;;;;;;;9.48;2.65;;;;;;;-0.75;100.00;100316.97;5016031;28;20033;-78
2024/01/15 02:15:43;;;;;;;10.95;2.85;;;;;;;-0.90;100.00;100283.50;5032532;28;20030;-78
2024/01/15 02:18:08;;;;;;;5.82;2.20;;;;;;;-0.65;100.00;100326.00;5033840;28;20029;-79
2024/01/15 02:20:34;;;;;;;8.95;2.50;;;;;;;-0.83;100.00;100298.56;5033802;28;20381;-78
2024/01/15 02:23:10;;;;;;;8.63;2.50;;;;;;;-0.66;100.00;100324.34;5033615;28;20040;-78
2024/01/15 02:25:37;;;;;;;11.20;2.58;;;;;;;-0.90;100.00;100293.63;5033916;28;20025;-78
2024/01/15 02:28:03;;;;;;;6.25;2.30;;;;;;;-0.80;100.00;100309.44;5033618;28;20099;-78
2024/01/15 02:30:30;;;;;;;10.65;3.08;;;;;;;-0.83;100.00;100301.94;5033742;28;20025;-78
2024/01/15 02:32:55;;;;;;;6.75;2.45;;;;;;;-0.79;100.00;100321.25;5033681;28;20029;-78
2024/01/15 02:35:20;;;;;;;8.65;2.40;;;;;;;-0.99;100.00;100283.72;5033529;28;20420;-78
2024/01/15 02:37:46;;;;;;;8.88;2.90;;;;;;;-0.80;100.00;100319.59;5033259;28;20495;-78
2024/01/15 02:40:11;;;;;;;8.50;2.35;;;;;;;-0.81;100.00;100324.72;5033408;28;20030;-77
2024/01/15 02:42:36;;;;;;;9.85;2.50;;;;;;;-0.83;100.00;100326.44;5033326;28;20029;-78
2024/01/15 02:45:02;;;;;;;8.73;2.58;;;;;;;-0.85;100.00;100321.44;5033402;28;20473;-78
2024/01/15 02:47:27;;;;;;;8.95;2.08;;;;;;;-0.96;100.00;100298.03;5033238;28;20061;-78
2024/01/15 02:49:52;;;;;;;8.13;2.80;;;;;;;-0.87;100.00;100316.41;5033312;28;20033;-78
2024/01/15 02:52:18;;;;;;;9.60;2.65;;;;;;;-1.24;100.00;100257.31;5032632;28;20558;-78
2024/01/15 02:54:43;;;;;;;9.40;2.47;;;;;;;-0.85;100.00;100321.44;5033314;28;20037;-77
2024/01/15 02:57:08;;;;;;;9.98;2.22;;;;;;;-0.96;100.00;100308.19;5031866;28;20037;-79
2024/01/15 02:59:34;;;;;;;10.73;3.40;;;;;;;-0.87;100.00;100323.16;5033078;28;20034;-78
2024/01/15 03:01:59;;;;;;;7.78;2.30;;;;;;;-0.85;100.00;100320.59;5033121;28;20025;-78
2024/01/15 03:04:24;;;;;;;7.60;2.03;;;;;;;-0.87;100.00;100323.16;5032910;28;20014;-78
2024/01/15 03:06:50;;;;;;;9.77;2.33;;;;;;;-0.87;100.00;100329.06;5032596;28;20388;-78
2024/01/15 03:09:15;;;;;;;13.57;2.05;;;;;;;-0.85;100.00;100333.25;5033085;28;20037;-78
2024/01/15 03:11:40;;;;;;;10.73;2.45;;;;;;;-0.89;100.00;100324.88;5032864;28;20025;-78
2024/01/15 03:14:05;;;;;;;7.88;2.10;;;;;;;-0.91;100.00;100319.84;5033122;28;20036;-78
2024/01/15 03:16:31;;;;;;;9.00;2.00;;;;;;;-0.96;100.00;100314.09;5032976;28;20569;-78
2024/01/15 03:18:56;;;;;;;6.70;2.05;;;;;;;-0.91;100.00;100322.38;5032934;28;20469;-78
2024/01/15 03:21:21;;;;;;;8.07;2.03;;;;;;;-0.88;100.00;100318.97;5033004;28;20029;-78
2024/01/15 03:23:47;;;;;;;10.63;2.60;;;;;;;-0.92;100.00;100313.13;5032423;28;20380;-78
2024/01/15 03:26:12;;;;;;;8.02;2.45;;;;;;;-1.05;100.00;100290.66;5032903;28;20082;-79
2024/01/15 03:28:37;;;;;;;14.63;2.38;;;;;;;-1.01;100.00;100298.13;5032852;28;20044;-78
2024/01/15 03:31:03;;;;;;;6.80;1.95;;;;;;;-0.87;100.00;100324.00;5032903;28;20051;-78
2024/01/15 03:33:28;;;;;;;8.65;2.17;;;;;;;-1.02;100.00;100298.19;5032818;28;20495;-79
2024/01/15 03:35:53;;;;;;;5.72;2.58;;;;;;;-1.02;100.00;100293.94;5032724;28;20034;-78
2024/01/15 03:38:19;;;;;;;8.88;1.88;;;;;;;-0.92;100.00;100317.38;5032192;28;20034;-78
2024/01/15 03:40:44;;;;;;;11.25;2.58;;;;;;;-0.90;100.00;100313.09;5032882;28;21024;-77
2024/01/15 03:43:09;;;;;;;10.02;2.10;;;;;;;-0.96;100.00;100309.00;5032604;28;20366;-78
2024/01/15 03:45:35;;;;;;;8.57;2.10;;;;;;;-0.96;100.00;100306.47;5032575;28;20036;-78
2024/01/15 03:48:00;;;;;;;11.60;2.50;;;;;;;-0.94;100.00;100312.34;5032533;28;20033;-78
2024/01/15 03:50:25;;;;;;;13.25;4.03;;;;;;;-0.91;100.00;100314.78;5035960;28;20036;-78
2024/01/15 03:52:51;;;;;;;9.80;2.33;;;;;;;-1.17;100.00;100266.47;5036159;28;20508;-78
2024/01/15 03:55:16;;;;;;;15.70;2.58;;;;;;;-0.88;100.00;100303.75;5018686;28;20389;-78
2024/01/15 03:57:41;;;;;;;8.68;2.38;;;;;;;-0.84;100.00;100301.97;5036721;28;20091;-78
2024/01/15 04:00:07;;;;;;;12.13;2.35;;;;;;;-1.00;100.00;100276.16;5036475;28;20531;-78
2024/01/15 04:02:32;;;;;;;12.05;2.65;;;;;;;-0.75;100.00;100289.06;5036556;28;20432;-78
2024/01/15 04:04:58;;;;;;;12.63;2.58;;;;;;;-0.89;100.00;100261.53;5036326;28;20033;-78
2024/01/15 04:07:23;;;;;;;6.88;2.33;;;;;;;-0.66;100.00;100286.31;5036192;28;20392;-78
2024/01/15 04:09:48;;;;;;;11.52;2.50;;;;;;;-0.78;100.00;100263.81;5036139;28;20024;-78
2024/01/15 04:12:14;;;;;;;12.18;2.30;;;;;;;-0.67;100.00;100270.25;5036491;28;20785;-78
2024/01/15 04:14:39;;;;;;;12.75;2.38;;;;;;;-0.66;100.00;100256.72;5036414;28;20037;-78
2024/01/15 04:17:04;;;;;;;9.15;2.20;;;;;;;-0.49;100.00;100265.56;5036239;28;20033;-79
2024/01/15 04:19:30;;;;;;;10.25;2.33;;;;;;;-0.42;100.00;100270.44;5036093;28;20017;-78
2024/01/15 04:21:55;;;;;;;9.15;2.30;;;;;;;-0.40;100.00;100267.84;5035997;28;20500;-78
2024/01/15 04:24:20;;;;;;;9.60;2.30;;;;;;;-0.44;100.00;100251.91;5035956;28;20079;-78
2024/01/15 04:26:47;;;;;;;11.50;2.63;;;;;;;-0.27;100.00;100271.75;5017568;28;20543;-78
2024/01/15 04:29:12;;;;;;;10.05;2.33;;;;;;;-0.24;100.00;100276.72;5036136;28;20040;-78
2024/01/15 04:31:37;;;;;;;12.50;3.10;;;;;;;-0.33;100.00;100257.50;5035803;28;20104;-78
2024/01/15 04:34:03;;;;;;;10.20;3.10;;;;;;;-0.36;100.00;100249.16;5035724;28;20029;-79
2024/01/15 04:36:28;;;;;;;10.38;2.75;;;;;;;-0.31;100.00;100240.53;5035915;28;20037;-79
2024/01/15 04:38:53;;;;;;;15.70;3.85;;;;;;;-0.14;100.00;100269.69;5035617;28;20461;-79
2024/01/15 04:41:19;;;;;;;9.43;2.75;;;;;;;-0.16;100.00;100253.69;5035747;28;20064;-78
2024/01/15 04:43:44;;;;;;;8.13;2.67;;;;;;;-0.19;100.00;100246.16;5035798;28;20112;-78
2024/01/15 04:46:10;;;;;;;10.70;2.50;;;;;;;-0.13;100.00;100253.59;5035683;28;20060;-78
2024/01/15 04:48:35;;;;;;;11.98;3.03;;;;;;;-0.15;100.00;100260.41;5035631;28;20104;-78
2024/01/15 04:51:00;;;;;;;8.27;2.50;;;;;;;-0.17;100.00;100265.53;5035670;28;20040;-78
2024/01/15 04:53:26;;;;;;;10.68;2.42;;;;;;;-0.16;100.00;100254.50;5035091;28;20096;-78
2024/01/15 04:55:51;;;;;;;9.50;2.33;;;;;;;-0.18;100.00;100247.81;5035421;28;20041;-79
2024/01/15 04:58:17;;;;;;;6.88;2.13;;;;;;;-0.25;100.00;100233.63;5035421;28;20032;-78
2024/01/15 05:00:42;;;;;;;9.15;2.47;;;;;;;-0.35;100.00;100215.31;5033799;28;20029;-78
2024/01/15 05:03:07;;;;;;;7.63;1.98;;;;;;;-0.08;100.00;100255.13;5035195;28;20018;-78
2024/01/15 05:05:33;;;;;;;5.88;2.03;;;;;;;-0.14;100.00;100241.78;5035309;28;20453;-78
2024/01/15 05:07:58;;;;;;;6.25;2.00;;;;;;;0.06;100.00;100266.59;5035022;28;20040;-80
2024/01/15 05:10:23;;;;;;;7.28;1.60;;;;;;;-0.06;100.00;100233.06;5034936;28;20029;-78
2024/01/15 05:12:49;;;;;;;7.40;1.73;;;;;;;0.11;100.00;100257.97;5035095;28;20100;-79
2024/01/15 05:15:14;;;;;;;3.90;1.48;;;;;;;0.18;100.00;100256.91;5034939;28;20384;-78
2024/01/15 05:17:40;;;;;;;3.58;1.23;;;;;;;0.20;100.00;100250.09;5035263;28;20033;-79
2024/01/15 05:20:05;;;;;;;2.83;1.52;;;;;;;0.20;100.00;100249.25;5035042;28;20023;-78
2024/01/15 05:22:31;;;;;;;3.75;1.30;;;;;;;0.22;100.00;100248.34;5034983;28;20075;-78
2024/01/15 05:24:56;;;;;;;3.97;1.10;;;;;;;0.19;100.00;100245.84;5034514;28;20028;-78
2024/01/15 05:27:21;;;;;;;2.90;1.05;;;;;;;0.15;100.00;100246.00;5034777;28;20029;-78
2024/01/15 05:29:47;;;;;;;4.68;1.13;;;;;;;-0.06;100.00;100217.00;5034705;28;20029;-78
2024/01/15 05:32:12;;;;;;;4.10;1.23;;;;;;;-0.04;100.00;100218.63;5035006;28;20465;-78
2024/01/15 05:34:37;;;;;;;2.75;1.15;;;;;;;0.03;100.00;100237.06;5034846;28;20080;-78
2024/01/15 05:37:03;;;;;;;3.55;1.27;;;;;;;0.06;100.00;100243.75;5034764;28;20029;-78
2024/01/15 05:39:28;;;;;;;2.70;1.40;;;;;;;-0.14;100.00;100212.16;5034600;28;20438;-78
2024/01/15 05:41:54;;;;;;;4.47;1.20;;;;;;;-0.03;100.00;100232.16;5033530;28;20108;-78
2024/01/15 05:44:19;;;;;;;5.43;1.55;;;;;;;0.02;100.00;100232.03;5034522;28;20111;-77
2024/01/15 05:46:44;;;;;;;2.97;1.60;;;;;;;-0.09;100.00;100209.50;5034660;28;20366;-78
2024/01/15 05:49:10;;;;;;;5.70;2.30;;;;;;;0.01;100.00;100241.34;5034408;28;20571;-78
2024/01/15 05:51:35;;;;;;;6.15;2.42;;;;;;;0.08;100.00;100244.53;5034217;28;20487;-78
2024/01/15 05:54:01;;;;;;;4.47;2.00;;;;;;;0.11;100.00;100240.19;5034114;28;20036;-79
2024/01/15 05:56:26;;;;;;;4.93;2.50;;;;;;;-0.11;100.00;100201.91;5034042;28;20025;-77
2024/01/15 05:58:52;;;;;;;6.53;2.40;;;;;;;0.08;100.00;100237.72;5034038;28;20435;-78
2024/01/15 06:01:17;;;;;;;4.43;2.40;;;;;;;-0.05;100.00;100219.50;5034187;28;20029;-77
2024/01/15 06:03:43;;;;;;;4.68;2.50;;;;;;;0.05;100.00;100242.09;5034227;28;20029;-78
2024/01/15 06:06:08;;;;;;;6.82;2.45;;;;;;;0.01;100.00;100237.97;5033916;28;20037;-78
2024/01/15 06:08:34;;;;;;;4.55;2.47;;;;;;;-0.03;100.00;100227.06;5034053;28;20034;-77
2024/01/15 06:10:59;;;;;;;6.38;2.55;;;;;;;-0.12;100.00;100214.66;5033759;28;20365;-78
2024/01/15 06:13:25;;;;;;;4.97;2.30;;;;;;;-0.07;100.00;100226.34;5033209;28;20109;-78
2024/01/15 06:15:50;;;;;;;6.72;2.25;;;;;;;-0.36;100.00;100173.06;5033862;28;20037;-77
2024/01/15 06:18:15;;;;;;;5.07;2.42;;;;;;;-0.32;100.00;100193.22;5034012;28;20104;-77
2024/01/15 06:20:40;;;;;;;7.47;2.88;;;;;;;-0.15;100.00;100214.75;5033657;28;20487;-77
2024/01/15 06:23:06;;;;;;;5.40;2.70;;;;;;;-0.17;100.00;100211.41;5033850;28;20404;-77
2024/01/15 06:25:31;;;;;;;4.72;2.67;;;;;;;-0.18;100.00;100213.13;5033439;28;20032;-78
2024/01/15 06:27:56;;;;;;;7.97;3.50;;;;;;;-0.29;100.00;100187.25;5033588;28;20029;-78
2024/01/15 06:30:22;;;;;;;9.25;3.30;;;;;;;-0.17;100.00;100207.19;5015245;28;20034;-78
2024/01/15 06:32:47;;;;;;;6.93;3.58;;;;;;;-0.18;100.00;100213.13;5033421;28;20018;-78
2024/01/15 06:35:12;;;;;;;8.43;3.75;;;;;;;-0.36;100.00;100186.56;5033282;28;20025;-77
2024/01/15 06:37:38;;;;;;;8.07;3.70;;;;;;;-0.38;100.00;100179.88;5033417;28;20029;-77
2024/01/15 06:40:05;;;;;;;8.30;4.00;;;;;;;-0.18;100.00;100217.38;5033126;28;20024;-78
2024/01/15 06:42:30;;;;;;;10.52;4.57;;;;;;;-0.20;100.00;100216.56;5033277;28;20083;-78
2024/01/15 06:44:56;;;;;;;8.10;4.10;;;;;;;-0.25;100.00;100200.66;5033363;28;20021;-78
2024/01/15 06:47:21;;;;;;;9.55;4.25;;;;;;;-0.34;100.00;100184.00;5033091;28;20030;-77
2024/01/15 06:49:46;;;;;;;9.32;5.10;;;;;;;-0.30;100.00;100198.22;5033424;28;20036;-78
2024/01/15 06:52:12;;;;;;;12.27;5.38;;;;;;;-0.20;100.00;100206.41;5033179;28;20133;-78
2024/01/15 06:54:37;;;;;;;10.88;5.53;;;;;;;-0.14;100.00;100216.41;5033027;28;20120;-78
2024/01/15 06:57:03;;;;;;;8.13;4.68;;;;;;;-0.24;100.00;100194.69;5033039;28;20467;-78
2024/01/15 06:59:29;;;;;;;9.00;5.15;;;;;;;-0.49;100.00;100138.75;5033146;28;20032;-77
2024/01/15 07:01:55;;;;;;;7.78;5.10;;;;;;;-0.14;100.00;100189.31;5033066;28;20025;-79
2024/01/15 07:04:20;;;;;;;9.07;5.30;;;;;;;-0.02;100.00;100216.03;5033067;28;20021;-79
2024/01/15 07:06:45;;;;;;;8.73;5.10;;;;;;;-0.02;100.00;100218.56;5032961;28;20484;-79
2024/01/15 07:09:11;;;;;;;8.52;5.20;;;;;;;-0.21;100.00;100189.53;5032992;28;20524;-78
2024/01/15 07:11:36;;;;;;;8.15;5.18;;;;;;;-0.23;100.00;100193.81;5032862;28;20061;-79
2024/01/15 07:14:01;;;;;;;7.45;4.88;;;;;;;-0.02;100.00;100210.97;5032996;28;20029;-79
2024/01/15 07:16:27;;;;;;;7.43;5.03;;;;;;;-0.01;100.00;100215.97;5033301;28;20362;-76
2024/01/15 07:18:52;;;;;;;7.03;4.75;;;;;;;-0.02;100.00;100204.16;5032721;28;20033;-79
2024/01/15 07:21:17;;;;;;;7.70;4.43;;;;;;;-0.06;100.00;100201.78;5032892;28;20029;-78
2024/01/15 07:23:43;;;;;;;6.50;4.00;;;;;;;-0.03;100.00;100216.91;5031754;28;20041;-79
2024/01/15 07:26:09;;;;;;;5.95;3.70;;;;;;;-0.22;100.00;100185.34;5032737;28;20043;-79
2024/01/15 07:28:34;;;;;;;7.22;4.05;;;;;;;-0.25;100.00;100185.44;5032637;28;20030;-83
2024/01/15 07:31:01;;;;;;;6.60;4.00;;;;;;;-0.32;100.00;100179.69;5031158;28;20061;-77
2024/01/15 07:33:27;;;;;;;5.88;3.80;;;;;;;-0.05;100.00;100228.81;5032506;28;20030;-76
2024/01/15 07:35:52;;;;;;;6.97;4.20;;;;;;;-0.24;100.00;100213.28;5032293;28;20037;-75
2024/01/15 07:38:17;;;;;;;6.78;4.00;;;;;;;-0.12;100.00;100224.78;5032773;28;20060;-78
2024/01/15 07:40:43;;;;;;;6.50;3.83;;;;;;;-0.08;100.00;100224.69;5032480;28;20025;-78
2024/01/15 07:43:08;;;;;;;7.80;4.72;;;;;;;-0.20;100.00;100203.88;5031579;28;20032;-76
2024/01/15 07:45:33;;;;;;;8.30;5.18;;;;;;;-0.01;100.00;100231.22;5033103;28;20030;-78
2024/01/15 07:47:59;;;;;;;8.35;5.40;;;;;;;0.04;100.00;100237.88;5032479;28;20055;-79
2024/01/15 07:50:24;;;;;;;8.10;5.18;;;;;;;-0.23;100.00;100199.72;5031941;28;20033;-77
2024/01/15 07:52:49;;;;;;;8.45;5.95;;;;;;;0.05;100.00;100232.75;5032174;28;20061;-77
2024/01/15 07:55:15;;;;;;;9.07;5.65;;;;;;;-0.04;100.00;100215.25;5032519;28;20025;-77
2024/01/15 07:57:40;;;;;;;8.95;5.95;;;;;;;0.05;100.00;100221.78;5031939;28;20029;-78
2024/01/15 08:00:06;;;;;;;10.13;5.70;;;;;;;-0.01;100.00;100238.00;5031013;28;20026;-76
2024/01/15 08:02:32;;;;;;;8.68;5.90;;;;;;;-0.08;100.00;100234.81;5032497;28;20052;-77
2024/01/15 08:04:58;;;;;;;7.93;5.15;;;;;;;-0.04;100.00;100240.63;5032222;28;20026;-74
2024/01/15 08:07:25;;;;;;;9.20;5.30;;;;;;;0.07;100.00;100256.38;5032134;28;20017;-76
2024/01/15 08:09:50;;;;;;;8.48;5.72;;;;;;;0.10;100.00;100265.59;5032236;28;20063;-77
2024/01/15 08:12:16;;;;;;;7.93;5.43;;;;;;;0.12;100.00;100256.25;5032004;28;20033;-78
2024/01/15 08:14:41;;;;;;;7.93;5.25;;;;;;;0.14;100.00;100257.03;5032079;28;20036;-77
2024/01/15 08:17:06;;;;;;;7.43;4.88;;;;;;;0.06;100.00;100248.81;5032035;28;20030;-79
2024/01/15 08:19:35;;;;;;;8.65;5.68;;;;;;;-0.06;100.00;100240.69;5032205;28;20025;-79
2024/01/15 08:22:00;;;;;;;7.60;4.70;;;;;;;0.11;100.00;100273.22;5032197;28;20464;-80
2024/01/15 08:24:25;;;;;;;7.93;4.78;;;;;;;0.08;100.00;100263.13;5032262;28;20049;-79
2024/01/15 08:26:51;;;;;;;6.63;4.47;;;;;;;-0.08;100.00;100242.44;5031901;28;20484;-79
2024/01/15 08:29:18;;;;;;;6.45;4.50;;;;;;;-0.11;100.00;100247.59;5032250;28;20473;-80
2024/01/15 08:31:43;;;;;;;6.13;4.45;;;;;;;0.00;100.00;100265.06;5032046;28;20488;-80
2024/01/15 08:34:09;;;;;;;6.85;4.78;;;;;;;-0.23;100.00;100219.19;5032059;28;20040;-82
2024/01/15 08:36:36;;;;;;;5.97;4.60;;;;;;;0.02;100.00;100250.63;5035394;28;20025;-79
2024/01/15 08:39:01;;;;;;;6.40;4.80;;;;;;;0.14;100.00;100264.66;5035692;28;20452;-79
2024/01/15 08:41:26;;;;;;;7.90;5.57;;;;;;;-0.02;100.00;100224.47;5035816;28;20095;-80
2024/01/15 08:43:53;;;;;;;7.53;5.80;;;;;;;0.21;100.00;100246.66;5035807;28;20468;-80
2024/01/15 08:46:18;;;;;;;8.98;5.53;;;;;;;0.13;100.00;100235.06;5035624;28;20041;-80
2024/01/15 08:48:43;;;;;;;7.80;5.75;;;;;;;0.22;100.00;100245.78;5035460;28;20028;-80
2024/01/15 08:51:09;;;;;;;7.72;5.47;;;;;;;0.35;100.00;100268.28;5035593;28;20029;-79
2024/01/15 08:53:34;;;;;;;7.40;5.75;;;;;;;0.35;100.00;100273.34;5035294;28;20044;-80
2024/01/15 08:55:59;;;;;;;8.13;5.50;;;;;;;0.07;100.00;100215.78;5033758;28;20045;-80
2024/01/15 08:58:25;;;;;;;7.75;6.35;;;;;;;0.36;100.00;100260.59;5035506;28;20025;-81
2024/01/15 09:00:51;;;;;;;8.32;6.43;;;;;;;0.38;100.00;100260.56;5033515;28;20366;-76
2024/01/15 09:03:16;;;;;;;7.40;5.88;;;;;;;0.36;100.00;100252.97;5036015;28;20060;-80
2024/01/15 09:05:42;;;;;;;8.15;5.68;;;;;;;0.38;100.00;100252.94;5035475;28;20164;-80
2024/01/15 09:08:08;;;;;;;6.40;5.50;;;;;;;0.42;100.00;100254.53;5035051;28;20029;-79
2024/01/15 09:10:33;;;;;;;7.28;6.03;;;;;;;0.45;100.00;100257.78;5030243;28;20534;-74
2024/01/15 09:13:00;;;;;;;8.55;6.50;;;;;;;0.35;100.00;100245.41;5015360;28;20045;-77
2024/01/15 09:15:25;;;;;;;10.93;6.85;;;;;;;0.54;100.00;100265.13;5030216;28;20033;-77
2024/01/15 09:17:51;;;;;;;9.25;6.45;;;;;;;0.52;100.00;100263.53;5015530;28;20029;-77
2024/01/15 09:20:16;;;;;;;8.25;5.40;;;;;;;0.56;100.00;100268.44;5014037;28;20022;-75
2024/01/15 09:22:42;;;;;;;6.50;4.55;;;;;;;0.58;100.00;100264.13;5015284;28;20026;-78
2024/01/15 09:25:09;;;;;;;5.97;4.40;;;;;;;0.55;100.00;100260.88;5015047;28;20026;-75
2024/01/15 09:27:35;;;;;;;9.18;5.63;;;;;;;0.52;100.00;100261.81;4996968;28;20189;-80
2024/01/15 09:30:00;;;;;;;6.03;4.00;;;;;;;0.48;100.00;100257.69;5014971;28;20427;-79
2024/01/15 09:32:25;;;;;;;6.47;3.63;;;;;;;0.54;100.00;100247.34;5014931;28;20025;-78
2024/01/15 09:34:51;;;;;;;9.07;3.38;;;;;;;0.60;100.00;100251.41;5015181;28;20022;-79
2024/01/15 09:37:16;;;;;;;5.47;2.90;;;;;;;0.45;100.00;100244.25;5013844;28;20029;-77
2024/01/15 09:39:42;;;;;;;4.95;2.30;;;;;;;0.38;100.00;100230.91;5015546;28;20026;-78
2024/01/15 09:42:08;;;;;;;4.93;2.25;;;;;;;0.51;100.00;100262.69;5013602;28;20034;-78
2024/01/15 09:44:34;;;;;;;5.82;2.00;;;;;;;0.48;100.00;100272.09;5014855;28;20017;-79
2024/01/15 09:47:00;;;;;;;7.03;2.10;;;;;;;0.44;100.00;100260.38;5013821;28;20026;-79
2024/01/15 09:49:25;;;;;;;7.25;1.80;;;;;;;0.42;100.00;100247.72;5014838;28;20030;-78
2024/01/15 09:51:51;;;;;;;6.88;1.67;;;;;;;0.58;100.00;100269.22;5018392;28;20077;-81
2024/01/15 09:54:17;;;;;;;8.18;1.95;;;;;;;0.45;100.00;100257.78;5034222;28;20013;-81
2024/01/15 09:56:46;;;;;;;4.88;1.90;;;;;;;0.43;100.00;100249.38;5034126;28;20060;-79
2024/01/15 09:59:15;;;;;;;5.32;1.75;;;;;;;0.52;100.00;100271.13;5034244;28;20028;-79
2024/01/15 10:01:40;;;;;;;5.28;1.60;;;;;;;0.55;100.00;100281.19;5034027;28;20025;-78
2024/01/15 10:04:06;;;;;;;5.85;1.90;;;;;;;0.65;100.00;100277.50;5034246;28;20036;-79
2024/01/15 10:06:32;;;;;;;6.20;1.80;;;;;;;0.71;100.00;100282.41;5034334;28;20022;-78
2024/01/15 10:09:00;;;;;;;4.80;2.28;;;;;;;0.67;100.00;100275.72;5033770;28;20096;-78
2024/01/15 10:11:26;;;;;;;6.65;1.60;;;;;;;0.73;100.00;100279.81;5033653;28;20033;-76
2024/01/15 10:13:53;;;;;;;4.95;2.10;;;;;;;0.78;100.00;100271.13;5033824;28;20032;-75
2024/01/15 10:16:21;;;;;;;5.28;1.65;;;;;;;0.95;100.00;100265.53;5016452;28;20022;-78
2024/01/15 10:18:47;;;;;;;8.23;2.08;;;;;;;1.10;100.00;100254.03;5034130;28;20033;-78
2024/01/15 10:21:14;;;;;;;6.57;1.83;;;;;;;1.39;100.00;100291.22;5033675;28;20079;-81
2024/01/15 10:23:39;;;;;;;8.38;1.73;;;;;;;1.52;100.00;100292.44;5033757;28;20021;-78
2024/01/15 10:26:05;;;;;;;6.13;1.75;;;;;;;1.36;100.00;100289.59;5033724;28;20022;-76
2024/01/15 10:28:31;;;;;;;7.45;1.80;;;;;;;1.23;100.00;100282.44;5033473;28;20112;-77
2024/01/15 10:31:01;;;;;;;7.72;1.90;;;;;;;1.18;100.00;100297.00;5034157;28;20338;-81
2024/01/15 10:33:27;;;;;;;4.95;1.92;;;;;;;1.22;100.00;100296.03;5033717;28;20029;-79
2024/01/15 10:36:00;;;;;;;6.82;2.08;;;;;;;1.19;100.00;100299.50;5033619;28;20033;-80
2024/01/15 10:38:26;;;;;;;5.55;1.58;;;;;;;1.05;100.00;100291.47;5033515;28;20025;-81
2024/01/15 10:40:55;;;;;;;5.72;2.28;;;;;;;0.78;100.00;100248.25;5033795;28;20384;-82
2024/01/15 10:43:21;;;;;;;5.43;1.90;;;;;;;0.97;100.00;100289.19;5015657;28;20025;-81
2024/01/15 10:45:47;;;;;;;5.40;2.10;;;;;;;0.87;100.00;100280.19;5032199;28;20353;-82
2024/01/15 10:48:14;;;;;;;4.38;2.15;;;;;;;0.71;100.00;100272.22;5033359;28;20033;-77
2024/01/15 10:50:40;;;;;;;6.78;2.50;;;;;;;0.45;100.00;100247.63;5033432;28;20021;-81
2024/01/15 10:53:05;;;;;;;7.28;3.30;;;;;;;0.61;100.00;100278.47;5032880;28;20041;-78
2024/01/15 10:55:35;;;;;;;9.75;3.30;;;;;;;0.60;100.00;100274.28;5033558;28;20506;-80
2024/01/15 10:58:01;;;;;;;7.75;3.30;;;;;;;0.67;100.00;100280.81;5033417;28;20032;-78
2024/01/15 11:00:27;;;;;;;7.45;3.75;;;;;;;0.66;100.00;100252.91;5015542;28;20033;-80
2024/01/15 11:02:55;;;;;;;10.95;3.80;;;;;;;0.57;100.00;100226.09;5033145;28;20477;-82
2024/01/15 11:05:22;;;;;;;6.57;3.08;;;;;;;0.91;100.00;100240.28;5033028;28;20029;-82
2024/01/15 11:07:48;;;;;;;9.73;3.85;;;;;;;0.98;100.00;100247.63;5032850;28;20017;-81
2024/01/15 11:10:40;;;;;;;6.32;2.90;;;;;;;1.15;100.00;100262.31;5032977;28;20380;-79
2024/01/15 11:13:21;;;;;;;8.48;3.67;;;;;;;1.25;100.00;100273.03;5033111;28;20025;-81